createdAt,value
2024-05-09T00:00:39.591Z,24.90
2024-05-09T00:01:36.090Z,23.50
2024-05-09T00:02:36.108Z,24.20
2024-05-09T00:03:36.099Z,23.40
2024-05-09T00:04:36.038Z,23.80
2024-05-09T00:05:36.798Z,24.90
2024-05-09T00:06:35.990Z,24.20
2024-05-09T00:07:35.970Z,24.40
2024-05-09T00:08:36.014Z,25.90
2024-05-09T00:09:35.959Z,24.10
2024-05-09T00:10:38.436Z,23.80
2024-05-09T00:11:36.039Z,28.00
2024-05-09T00:12:35.916Z,29.80
2024-05-09T00:13:35.914Z,25.30
2024-05-09T00:14:35.936Z,25.30
2024-05-09T00:15:36.515Z,25.60
2024-05-09T00:16:35.856Z,25.70
2024-05-09T00:17:36.073Z,25.80
2024-05-09T00:18:35.905Z,29.20
2024-05-09T00:19:35.906Z,27.70
2024-05-09T00:20:39.488Z,28.70
2024-05-09T00:21:35.782Z,28.80
2024-05-09T00:22:35.766Z,26.70
2024-05-09T00:23:35.920Z,25.40
2024-05-09T00:24:35.757Z,26.50
2024-05-09T00:25:36.072Z,27.10
2024-05-09T00:26:35.768Z,25.70
2024-05-09T00:27:35.710Z,28.00
2024-05-09T00:28:35.696Z,25.00
2024-05-09T00:29:35.724Z,25.40
2024-05-09T00:30:37.150Z,25.50
2024-05-09T00:31:35.634Z,27.70
2024-05-09T00:32:35.759Z,26.30
2024-05-09T00:33:35.770Z,28.00
2024-05-09T00:34:35.624Z,26.80
2024-05-09T00:35:35.901Z,27.60
2024-05-09T00:36:35.582Z,26.80
2024-05-09T00:37:35.557Z,26.30
2024-05-09T00:38:42.157Z,28.20
2024-05-09T00:39:35.534Z,26.80
2024-05-09T00:40:39.698Z,26.10
2024-05-09T00:41:35.602Z,26.80
2024-05-09T00:42:35.502Z,26.20
2024-05-09T00:43:35.485Z,29.50
2024-05-09T00:44:35.587Z,27.30
2024-05-09T00:45:35.498Z,27.90
2024-05-09T00:46:35.488Z,26.90
2024-05-09T00:47:35.524Z,26.10
2024-05-09T00:48:35.575Z,29.30
2024-05-09T00:49:35.546Z,28.10
2024-05-09T00:50:37.094Z,31.20
2024-05-09T00:51:35.370Z,29.80
2024-05-09T00:52:35.364Z,26.40
2024-05-09T00:53:35.457Z,26.70
2024-05-09T00:54:35.347Z,27.80
2024-05-09T00:55:35.480Z,29.20
2024-05-09T00:56:35.404Z,26.70
2024-05-09T00:57:35.296Z,26.70
2024-05-09T00:58:35.308Z,26.20
2024-05-09T00:59:35.371Z,28.10
2024-05-09T01:00:39.487Z,29.30
2024-05-09T01:01:35.416Z,27.80
2024-05-09T01:02:35.508Z,26.50
2024-05-09T01:03:35.554Z,28.10
2024-05-09T01:04:35.251Z,27.10
2024-05-09T01:05:35.698Z,28.40
2024-05-09T01:06:35.170Z,28.00
2024-05-09T01:07:35.185Z,28.30
2024-05-09T01:08:35.251Z,27.40
2024-05-09T01:09:35.131Z,29.00
2024-05-09T01:10:36.510Z,29.70
2024-05-09T01:11:35.192Z,31.00
2024-05-09T01:12:35.181Z,29.70
2024-05-09T01:13:35.106Z,28.20
2024-05-09T01:14:35.086Z,27.80
2024-05-09T01:15:35.766Z,30.20
2024-05-09T01:16:35.045Z,28.30
2024-05-09T01:17:35.263Z,27.20
2024-05-09T01:18:35.161Z,27.70
2024-05-09T01:19:35.153Z,29.50
2024-05-09T01:20:41.433Z,34.10
2024-05-09T01:21:34.978Z,34.60
2024-05-09T01:22:34.957Z,38.30
2024-05-09T01:23:35.123Z,43.00
2024-05-09T01:24:34.944Z,33.20
2024-05-09T01:25:34.927Z,37.80
2024-05-09T01:26:34.968Z,34.20
2024-05-09T01:27:34.889Z,31.00
2024-05-09T01:28:34.884Z,29.60
2024-05-09T01:29:34.918Z,29.90
2024-05-09T01:30:37.101Z,28.40
2024-05-09T01:31:34.865Z,31.20
2024-05-09T01:32:35.173Z,27.30
2024-05-09T01:33:35.017Z,27.50
2024-05-09T01:34:34.805Z,27.50
2024-05-09T01:35:34.854Z,27.10
2024-05-09T01:36:34.760Z,27.80
2024-05-09T01:37:35.108Z,29.40
2024-05-09T01:38:34.811Z,29.60
2024-05-09T01:39:34.738Z,26.70
2024-05-09T01:40:38.641Z,27.80
2024-05-09T01:41:34.782Z,30.00
2024-05-09T01:42:34.706Z,27.70
2024-05-09T01:43:34.663Z,28.20
2024-05-09T01:44:34.741Z,28.60
2024-05-09T01:45:34.664Z,28.50
2024-05-09T01:46:34.633Z,31.00
2024-05-09T01:47:34.864Z,27.50
2024-05-09T01:48:34.712Z,29.00
2024-05-09T01:49:34.891Z,29.10
2024-05-09T01:50:39.477Z,28.30
2024-05-09T01:51:34.559Z,29.30
2024-05-09T01:52:34.547Z,30.80
2024-05-09T01:53:34.721Z,31.60
2024-05-09T01:54:34.547Z,32.70
2024-05-09T01:55:34.531Z,33.70
2024-05-09T01:56:34.635Z,31.80
2024-05-09T01:57:34.474Z,35.20
2024-05-09T01:58:34.474Z,32.50
2024-05-09T01:59:34.474Z,33.80
2024-05-09T02:00:39.740Z,32.60
2024-05-09T02:01:55.520Z,32.60
2024-05-09T02:02:34.490Z,35.10
2024-05-09T02:03:34.606Z,32.70
2024-05-09T02:04:34.494Z,33.20
2024-05-09T02:05:34.500Z,34.20
2024-05-09T02:06:34.349Z,32.20
2024-05-09T02:07:34.375Z,32.00
2024-05-09T02:08:34.504Z,32.10
2024-05-09T02:09:34.310Z,31.80
2024-05-09T02:10:34.306Z,32.60
2024-05-09T02:11:34.344Z,31.70
2024-05-09T02:12:34.428Z,36.90
2024-05-09T02:13:34.262Z,33.50
2024-05-09T02:14:34.336Z,32.10
2024-05-09T02:15:34.225Z,32.30
2024-05-09T02:16:34.231Z,32.40
2024-05-09T02:17:34.347Z,34.60
2024-05-09T02:18:34.257Z,34.30
2024-05-09T02:19:34.381Z,34.70
2024-05-09T02:20:36.652Z,33.90
2024-05-09T02:21:34.169Z,32.60
2024-05-09T02:22:34.139Z,33.00
2024-05-09T02:23:34.197Z,33.30
2024-05-09T02:24:34.121Z,35.30
2024-05-09T02:25:34.347Z,33.90
2024-05-09T02:26:34.141Z,35.70
2024-05-09T02:27:34.100Z,37.10
2024-05-09T02:28:34.055Z,36.70
2024-05-09T02:29:34.088Z,35.00
2024-05-09T02:30:39.747Z,36.40
2024-05-09T02:31:34.034Z,34.90
2024-05-09T02:32:34.188Z,37.60
2024-05-09T02:33:34.118Z,34.30
2024-05-09T02:34:34.026Z,32.70
2024-05-09T02:35:34.137Z,33.60
2024-05-09T02:36:33.975Z,40.70
2024-05-09T02:37:33.936Z,36.20
2024-05-09T02:38:34.018Z,35.80
2024-05-09T02:39:33.899Z,36.60
2024-05-09T02:40:37.869Z,35.30
2024-05-09T02:41:33.975Z,34.00
2024-05-09T02:42:33.872Z,33.70
2024-05-09T02:43:33.841Z,34.60
2024-05-09T02:44:33.904Z,36.80
2024-05-09T02:45:33.858Z,33.70
2024-05-09T02:46:33.816Z,33.70
2024-05-09T02:47:33.966Z,32.70
2024-05-09T02:48:33.841Z,31.70
2024-05-09T02:49:33.992Z,32.70
2024-05-09T02:50:38.401Z,33.20
2024-05-09T02:51:34.129Z,37.60
2024-05-09T02:52:33.945Z,35.50
2024-05-09T02:53:33.887Z,32.40
2024-05-09T02:54:33.905Z,32.80
2024-05-09T02:55:33.721Z,35.50
2024-05-09T02:56:33.831Z,35.70
2024-05-09T02:57:33.671Z,37.00
2024-05-09T02:58:33.661Z,35.50
2024-05-09T02:59:33.687Z,36.50
2024-05-09T03:00:39.311Z,35.90
2024-05-09T03:01:33.786Z,34.40
2024-05-09T03:02:33.926Z,35.60
2024-05-09T03:03:33.978Z,35.90
2024-05-09T03:04:33.687Z,36.20
2024-05-09T03:05:33.720Z,36.80
2024-05-09T03:06:33.539Z,37.50
2024-05-09T03:07:33.528Z,35.90
2024-05-09T03:08:33.598Z,41.80
2024-05-09T03:09:33.503Z,38.20
2024-05-09T03:10:36.587Z,37.20
2024-05-09T03:11:33.572Z,32.70
2024-05-09T03:12:35.121Z,34.30
2024-05-09T03:13:33.443Z,34.80
2024-05-09T03:14:33.531Z,33.70
2024-05-09T03:15:33.408Z,37.40
2024-05-09T03:16:33.438Z,34.60
2024-05-09T03:17:33.684Z,32.70
2024-05-09T03:18:33.491Z,35.60
2024-05-09T03:19:33.553Z,34.80
2024-05-09T03:20:35.543Z,35.20
2024-05-09T03:21:33.335Z,33.80
2024-05-09T03:22:33.324Z,33.70
2024-05-09T03:23:33.343Z,33.30
2024-05-09T03:24:33.291Z,33.60
2024-05-09T03:25:33.489Z,33.90
2024-05-09T03:26:33.316Z,33.30
2024-05-09T03:27:33.632Z,33.90
2024-05-09T03:28:33.243Z,34.80
2024-05-09T03:29:33.409Z,34.50
2024-05-09T03:30:40.515Z,36.10
2024-05-09T03:31:33.231Z,35.70
2024-05-09T03:32:33.323Z,38.80
2024-05-09T03:33:33.416Z,38.90
2024-05-09T03:34:33.153Z,39.40
2024-05-09T03:35:33.213Z,37.80
2024-05-09T03:36:33.136Z,36.80
2024-05-09T03:37:33.138Z,38.40
2024-05-09T03:38:33.233Z,36.00
2024-05-09T03:39:33.108Z,36.30
2024-05-09T03:40:33.085Z,38.30
2024-05-09T03:41:33.214Z,37.70
2024-05-09T03:42:33.056Z,36.30
2024-05-09T03:43:33.074Z,39.10
2024-05-09T03:44:33.104Z,36.90
2024-05-09T03:45:33.002Z,37.30
2024-05-09T03:46:33.002Z,37.00
2024-05-09T03:47:33.108Z,45.20
2024-05-09T03:48:33.087Z,39.20
2024-05-09T03:49:32.998Z,39.70
2024-05-09T03:50:35.692Z,39.90
2024-05-09T03:51:32.930Z,38.50
2024-05-09T03:52:32.920Z,38.60
2024-05-09T03:53:32.954Z,38.00
2024-05-09T03:54:32.884Z,39.30
2024-05-09T03:55:32.895Z,47.30
2024-05-09T03:56:32.956Z,37.90
2024-05-09T03:57:32.861Z,38.30
2024-05-09T03:58:32.846Z,40.10
2024-05-09T03:59:32.916Z,39.60
2024-05-09T04:00:38.064Z,40.70
2024-05-09T04:01:32.915Z,39.40
2024-05-09T04:02:32.894Z,41.20
2024-05-09T04:03:32.974Z,39.10
2024-05-09T04:04:32.858Z,42.00
2024-05-09T04:05:33.131Z,40.00
2024-05-09T04:06:32.724Z,38.60
2024-05-09T04:07:32.730Z,37.90
2024-05-09T04:08:32.815Z,38.40
2024-05-09T04:09:32.690Z,38.60
2024-05-09T04:10:34.391Z,37.40
2024-05-09T04:11:32.778Z,38.60
2024-05-09T04:12:32.713Z,46.00
2024-05-09T04:13:32.632Z,36.90
2024-05-09T04:14:32.657Z,39.70
2024-05-09T04:15:32.767Z,39.90
2024-05-09T04:16:32.590Z,40.40
2024-05-09T04:17:33.099Z,41.60
2024-05-09T04:18:32.617Z,39.10
2024-05-09T04:19:32.780Z,40.20
2024-05-09T04:20:38.209Z,38.70
2024-05-09T04:21:32.536Z,40.50
2024-05-09T04:22:32.519Z,39.30
2024-05-09T04:23:32.548Z,38.80
2024-05-09T04:24:32.473Z,42.20
2024-05-09T04:25:32.516Z,39.90
2024-05-09T04:26:32.554Z,39.70
2024-05-09T04:27:32.445Z,39.50
2024-05-09T04:28:32.424Z,41.00
2024-05-09T04:29:32.457Z,44.20
2024-05-09T04:30:38.091Z,43.90
2024-05-09T04:31:32.393Z,43.90
2024-05-09T04:32:32.591Z,43.70
2024-05-09T04:33:32.594Z,43.80
2024-05-09T04:34:32.464Z,45.20
2024-05-09T04:35:32.586Z,43.40
2024-05-09T04:36:32.318Z,44.20
2024-05-09T04:37:32.311Z,42.20
2024-05-09T04:38:32.418Z,42.00
2024-05-09T04:39:32.284Z,44.30
2024-05-09T04:40:35.533Z,43.60
2024-05-09T04:41:32.329Z,43.90
2024-05-09T04:42:32.234Z,45.00
2024-05-09T04:43:32.674Z,46.50
2024-05-09T04:44:32.275Z,47.30
2024-05-09T04:45:32.263Z,47.40
2024-05-09T04:46:32.184Z,48.00
2024-05-09T04:47:32.364Z,47.50
2024-05-09T04:48:32.407Z,48.90
2024-05-09T04:49:32.175Z,45.60
2024-05-09T04:50:37.168Z,46.50
2024-05-09T04:51:32.120Z,43.70
2024-05-09T04:52:32.102Z,42.30
2024-05-09T04:53:32.177Z,40.60
2024-05-09T04:54:36.264Z,38.80
2024-05-09T04:55:32.076Z,39.60
2024-05-09T04:56:32.140Z,38.20
2024-05-09T04:57:32.036Z,38.70
2024-05-09T04:58:32.024Z,37.90
2024-05-09T04:59:32.122Z,36.20
2024-05-09T05:00:36.525Z,37.00
2024-05-09T05:01:32.037Z,36.20
2024-05-09T05:02:32.016Z,35.60
2024-05-09T05:03:32.333Z,36.70
2024-05-09T05:04:32.039Z,35.40
2024-05-09T05:05:31.981Z,36.10
2024-05-09T05:06:31.930Z,34.20
2024-05-09T05:07:31.919Z,33.70
2024-05-09T05:08:32.120Z,34.10
2024-05-09T05:09:31.867Z,32.60
2024-05-09T05:10:36.103Z,33.60
2024-05-09T05:11:32.099Z,33.00
2024-05-09T05:12:31.964Z,36.70
2024-05-09T05:13:31.821Z,35.90
2024-05-09T05:14:31.885Z,38.20
2024-05-09T05:15:31.792Z,38.30
2024-05-09T05:16:31.783Z,38.20
2024-05-09T05:17:31.946Z,41.00
2024-05-09T05:18:32.354Z,41.40
2024-05-09T05:19:31.851Z,42.00
2024-05-09T05:20:33.829Z,40.70
2024-05-09T05:21:31.788Z,40.00
2024-05-09T05:22:31.687Z,41.50
2024-05-09T05:23:31.740Z,43.10
2024-05-09T05:24:31.691Z,41.40
2024-05-09T05:25:31.661Z,43.70
2024-05-09T05:26:31.751Z,42.20
2024-05-09T05:27:31.625Z,43.40
2024-05-09T05:28:31.676Z,42.20
2024-05-09T05:29:31.635Z,44.10
2024-05-09T05:30:34.710Z,43.40
2024-05-09T05:31:31.613Z,43.70
2024-05-09T05:32:31.658Z,42.30
2024-05-09T05:33:31.857Z,40.20
2024-05-09T05:34:31.546Z,40.30
2024-05-09T05:35:31.764Z,43.20
2024-05-09T05:36:31.516Z,40.30
2024-05-09T05:37:31.490Z,40.50
2024-05-09T05:38:31.584Z,40.10
2024-05-09T05:39:31.482Z,41.80
2024-05-09T05:40:36.480Z,40.20
2024-05-09T05:41:31.512Z,38.90
2024-05-09T05:42:31.471Z,40.00
2024-05-09T05:43:31.427Z,39.60
2024-05-09T05:44:31.548Z,38.30
2024-05-09T05:45:31.403Z,39.50
2024-05-09T05:46:31.387Z,42.10
2024-05-09T05:47:31.559Z,41.60
2024-05-09T05:48:31.432Z,42.70
2024-05-09T05:49:31.423Z,43.20
2024-05-09T05:50:36.007Z,44.90
2024-05-09T05:51:31.319Z,42.20
2024-05-09T05:52:31.288Z,44.10
2024-05-09T05:53:31.361Z,43.80
2024-05-09T05:54:31.251Z,42.60
2024-05-09T05:55:31.306Z,44.20
2024-05-09T05:56:31.376Z,44.20
2024-05-09T05:57:31.219Z,50.20
2024-05-09T05:58:31.221Z,43.80
2024-05-09T05:59:31.206Z,44.40
2024-05-09T06:00:38.130Z,45.60
2024-05-09T06:01:31.275Z,48.20
2024-05-09T06:02:31.242Z,46.00
2024-05-09T06:03:31.308Z,47.10
2024-05-09T06:04:31.246Z,47.10
2024-05-09T06:05:31.130Z,46.70
2024-05-09T06:06:31.208Z,45.30
2024-05-09T06:07:31.090Z,48.40
2024-05-09T06:08:31.124Z,47.80
2024-05-09T06:09:31.062Z,46.80
2024-05-09T06:10:37.954Z,46.20
2024-05-09T06:11:31.204Z,47.10
2024-05-09T06:12:31.062Z,48.50
2024-05-09T06:13:31.044Z,53.90
2024-05-09T06:14:31.133Z,45.20
2024-05-09T06:15:31.037Z,50.40
2024-05-09T06:16:30.987Z,44.20
2024-05-09T06:17:31.093Z,46.30
2024-05-09T06:18:31.137Z,45.60
2024-05-09T06:19:31.092Z,46.10
2024-05-09T06:20:36.331Z,45.70
2024-05-09T06:21:30.892Z,47.00
2024-05-09T06:22:30.882Z,46.10
2024-05-09T06:23:30.913Z,48.00
2024-05-09T06:24:30.838Z,48.20
2024-05-09T06:25:30.850Z,48.40
2024-05-09T06:26:30.906Z,46.60
2024-05-09T06:27:30.805Z,48.80
2024-05-09T06:28:30.815Z,48.00
2024-05-09T06:29:30.852Z,50.10
2024-05-09T06:30:38.176Z,49.30
2024-05-09T06:31:30.761Z,50.30
2024-05-09T06:32:30.857Z,51.90
2024-05-09T06:33:31.017Z,51.50
2024-05-09T06:34:30.785Z,51.60
2024-05-09T06:35:31.022Z,50.40
2024-05-09T06:36:30.693Z,50.10
2024-05-09T06:37:30.677Z,50.10
2024-05-09T06:38:30.723Z,52.20
2024-05-09T06:39:30.654Z,51.70
2024-05-09T06:40:37.189Z,52.80
2024-05-09T06:41:30.692Z,51.90
2024-05-09T06:42:30.615Z,53.10
2024-05-09T06:43:30.622Z,52.60
2024-05-09T06:44:30.678Z,51.90
2024-05-09T06:45:30.575Z,51.80
2024-05-09T06:46:30.547Z,52.20
2024-05-09T06:47:30.701Z,49.10
2024-05-09T06:48:30.687Z,49.50
2024-05-09T06:49:30.630Z,50.50
2024-05-09T06:50:36.855Z,50.80
2024-05-09T06:51:30.505Z,50.00
2024-05-09T06:52:30.492Z,52.10
2024-05-09T06:53:30.482Z,50.10
2024-05-09T06:54:30.438Z,51.80
2024-05-09T06:55:30.495Z,51.80
2024-05-09T06:56:30.508Z,51.70
2024-05-09T06:57:30.420Z,49.90
2024-05-09T06:58:30.391Z,48.70
2024-05-09T06:59:30.467Z,48.60
2024-05-09T07:00:37.872Z,48.40
2024-05-09T07:01:30.384Z,46.80
2024-05-09T07:02:30.450Z,48.80
2024-05-09T07:03:30.475Z,47.60
2024-05-09T07:04:30.475Z,47.20
2024-05-09T07:05:30.376Z,47.50
2024-05-09T07:06:30.291Z,48.50
2024-05-09T07:07:30.267Z,48.20
2024-05-09T07:08:30.278Z,46.60
2024-05-09T07:09:30.268Z,45.50
2024-05-09T07:10:34.857Z,45.80
2024-05-09T07:11:30.378Z,45.50
2024-05-09T07:12:30.333Z,45.40
2024-05-09T07:13:30.193Z,46.30
2024-05-09T07:14:30.346Z,44.90
2024-05-09T07:15:30.180Z,47.10
2024-05-09T07:16:30.147Z,46.10
2024-05-09T07:17:30.297Z,45.90
2024-05-09T07:18:30.266Z,45.80
2024-05-09T07:19:30.221Z,45.40
2024-05-09T07:20:34.568Z,44.30
2024-05-09T07:21:30.083Z,44.10
2024-05-09T07:22:30.219Z,43.70
2024-05-09T07:23:30.083Z,43.50
2024-05-09T07:24:30.047Z,43.50
2024-05-09T07:25:30.595Z,42.70
2024-05-09T07:26:30.091Z,43.70
2024-05-09T07:27:30.235Z,43.80
2024-05-09T07:28:29.988Z,42.70
2024-05-09T07:29:30.064Z,46.80
2024-05-09T07:30:33.601Z,42.90
2024-05-09T07:31:29.952Z,40.40
2024-05-09T07:32:30.029Z,41.70
2024-05-09T07:33:30.095Z,41.50
2024-05-09T07:34:30.009Z,40.80
2024-05-09T07:35:30.404Z,40.00
2024-05-09T07:36:29.876Z,40.90
2024-05-09T07:37:29.906Z,40.40
2024-05-09T07:38:29.865Z,39.40
2024-05-09T07:39:29.834Z,41.80
2024-05-09T07:40:35.805Z,38.60
2024-05-09T07:41:29.879Z,43.80
2024-05-09T07:42:29.830Z,39.30
2024-05-09T07:43:29.792Z,37.70
2024-05-09T07:44:29.876Z,38.80
2024-05-09T07:45:45.890Z,38.50
2024-05-09T07:47:36.956Z,39.50
2024-05-09T07:50:53.206Z,38.70
2024-05-09T07:53:32.541Z,36.80
2024-05-09T07:53:49.433Z,37.90
2024-05-09T07:54:00.487Z,36.50
2024-05-09T07:55:33.093Z,33.90
2024-05-09T07:56:34.061Z,36.10
2024-05-09T07:57:33.830Z,36.10
2024-05-09T07:58:33.809Z,35.90
2024-05-09T07:59:37.639Z,35.20
2024-05-09T08:00:33.838Z,34.50
2024-05-09T08:01:33.940Z,36.70
2024-05-09T08:02:33.926Z,34.20
2024-05-09T08:03:33.992Z,33.30
2024-05-09T08:04:34.140Z,33.30
2024-05-09T08:05:33.782Z,38.40
2024-05-09T08:06:33.739Z,33.90
2024-05-09T08:07:33.633Z,36.30
2024-05-09T08:08:33.672Z,33.20
2024-05-09T08:09:35.561Z,32.70
2024-05-09T08:10:33.655Z,32.50
2024-05-09T08:11:33.593Z,32.10
2024-05-09T08:12:33.694Z,36.70
2024-05-09T08:13:33.559Z,32.00
2024-05-09T08:14:33.559Z,32.10
2024-05-09T08:15:33.580Z,30.90
2024-05-09T08:16:33.564Z,30.50
2024-05-09T08:17:33.586Z,31.60
2024-05-09T08:18:33.730Z,29.90
2024-05-09T08:19:33.521Z,33.70
2024-05-09T08:20:35.343Z,28.40
2024-05-09T08:21:33.528Z,28.40
2024-05-09T08:22:33.487Z,32.60
2024-05-09T08:23:33.432Z,28.80
2024-05-09T08:24:33.474Z,27.50
2024-05-09T08:25:33.439Z,30.50
2024-05-09T08:26:33.408Z,26.70
2024-05-09T08:27:33.381Z,27.60
2024-05-09T08:28:33.401Z,29.00
2024-05-09T08:29:33.346Z,27.50
2024-05-09T08:30:37.096Z,27.30
2024-05-09T08:31:33.401Z,27.10
2024-05-09T08:32:33.447Z,26.50
2024-05-09T08:33:33.596Z,27.60
2024-05-09T08:34:33.310Z,25.60
2024-05-09T08:35:33.287Z,26.40
2024-05-09T08:36:33.318Z,25.60
2024-05-09T08:37:37.926Z,26.50
2024-05-09T08:38:33.213Z,28.30
2024-05-09T08:39:33.268Z,25.80
2024-05-09T08:40:36.052Z,25.20
2024-05-09T08:41:33.198Z,25.70
2024-05-09T08:42:33.238Z,23.60
2024-05-09T08:43:33.147Z,23.50
2024-05-09T08:44:33.182Z,24.00
2024-05-09T08:45:33.168Z,26.10
2024-05-09T08:46:33.176Z,23.70
2024-05-09T08:47:33.346Z,27.60
2024-05-09T08:48:33.328Z,24.30
2024-05-09T08:49:33.099Z,24.60
2024-05-09T08:50:38.660Z,23.80
2024-05-09T08:51:33.065Z,24.80
2024-05-09T08:52:33.067Z,27.10
2024-05-09T08:53:33.028Z,22.20
2024-05-09T08:54:33.091Z,22.80
2024-05-09T08:55:32.996Z,24.90
2024-05-09T08:56:32.993Z,23.40
2024-05-09T08:57:33.008Z,23.20
2024-05-09T08:58:33.005Z,24.40
2024-05-09T08:59:32.949Z,22.40
2024-05-09T09:00:36.983Z,22.20
2024-05-09T09:01:33.023Z,22.40
2024-05-09T09:02:33.171Z,18.70
2024-05-09T09:03:33.065Z,22.30
2024-05-09T09:04:33.160Z,19.60
2024-05-09T09:05:32.997Z,21.50
2024-05-09T09:06:32.881Z,19.60
2024-05-09T09:07:32.847Z,22.10
2024-05-09T09:08:32.838Z,19.10
2024-05-09T09:09:32.849Z,20.30
2024-05-09T09:10:33.554Z,17.90
2024-05-09T09:11:32.842Z,18.80
2024-05-09T09:12:32.899Z,23.00
2024-05-09T09:13:32.809Z,16.60
2024-05-09T09:14:32.968Z,19.00
2024-05-09T09:15:33.131Z,18.50
2024-05-09T09:16:32.789Z,17.40
2024-05-09T09:17:32.834Z,14.40
2024-05-09T09:18:33.178Z,17.40
2024-05-09T09:19:32.758Z,20.00
2024-05-09T09:20:36.518Z,16.60
2024-05-09T09:21:32.798Z,16.80
2024-05-09T09:22:32.641Z,17.20
2024-05-09T09:23:32.735Z,17.00
2024-05-09T09:24:32.811Z,18.00
2024-05-09T09:25:32.593Z,14.30
2024-05-09T09:26:32.602Z,15.60
2024-05-09T09:27:32.573Z,16.30
2024-05-09T09:28:32.601Z,16.50
2024-05-09T09:29:32.524Z,13.10
2024-05-09T09:30:37.304Z,15.20
2024-05-09T09:31:32.579Z,16.00
2024-05-09T09:32:32.627Z,14.20
2024-05-09T09:33:32.998Z,13.10
2024-05-09T09:34:32.692Z,14.60
2024-05-09T09:35:32.472Z,17.20
2024-05-09T09:36:32.512Z,14.00
2024-05-09T09:37:32.441Z,14.20
2024-05-09T09:38:32.604Z,11.40
2024-05-09T09:39:32.553Z,11.90
2024-05-09T09:40:34.812Z,12.90
2024-05-09T09:41:32.447Z,14.50
2024-05-09T09:42:32.446Z,13.30
2024-05-09T09:43:32.367Z,18.20
2024-05-09T09:44:33.056Z,18.90
2024-05-09T09:45:32.419Z,14.90
2024-05-09T09:46:32.404Z,13.10
2024-05-09T09:47:32.425Z,17.00
2024-05-09T09:48:32.512Z,11.00
2024-05-09T09:49:32.363Z,15.70
2024-05-09T09:50:34.798Z,13.70
2024-05-09T09:51:32.276Z,18.00
2024-05-09T09:52:32.653Z,13.70
2024-05-09T09:53:32.231Z,13.80
2024-05-09T09:54:32.262Z,11.80
2024-05-09T09:55:32.171Z,14.10
2024-05-09T09:56:32.324Z,12.50
2024-05-09T09:57:32.228Z,11.40
2024-05-09T09:58:32.204Z,16.10
2024-05-09T09:59:32.117Z,13.50
2024-05-09T10:00:33.602Z,14.30
2024-05-09T10:01:32.160Z,10.90
2024-05-09T10:02:32.300Z,17.60
2024-05-09T10:03:32.351Z,12.00
2024-05-09T10:04:32.203Z,15.10
2024-05-09T10:05:32.266Z,11.70
2024-05-09T10:06:32.099Z,14.30
2024-05-09T10:07:32.078Z,11.60
2024-05-09T10:08:32.004Z,14.00
2024-05-09T10:09:32.099Z,10.30
2024-05-09T10:10:33.215Z,18.90
2024-05-09T10:11:34.894Z,13.30
2024-05-09T10:12:32.035Z,12.30
2024-05-09T10:13:31.995Z,12.10
2024-05-09T10:14:31.971Z,10.90
2024-05-09T10:15:31.960Z,12.70
2024-05-09T10:16:32.003Z,11.20
2024-05-09T10:17:31.993Z,12.60
2024-05-09T10:18:34.125Z,17.10
2024-05-09T10:19:32.091Z,14.60
2024-05-09T10:20:32.858Z,13.20
2024-05-09T10:21:31.913Z,12.40
2024-05-09T10:22:31.846Z,15.00
2024-05-09T10:23:31.824Z,13.60
2024-05-09T10:24:31.891Z,14.20
2024-05-09T10:25:31.941Z,12.80
2024-05-09T10:26:31.789Z,12.90
2024-05-09T10:27:31.814Z,13.30
2024-05-09T10:28:31.801Z,13.10
2024-05-09T10:29:31.790Z,12.30
2024-05-09T10:30:36.082Z,12.40
2024-05-09T10:31:31.763Z,10.50
2024-05-09T10:32:31.828Z,14.40
2024-05-09T10:33:31.808Z,17.40
2024-05-09T10:34:31.914Z,11.10
2024-05-09T10:35:31.678Z,12.30
2024-05-09T10:36:31.675Z,11.60
2024-05-09T10:37:31.733Z,12.10
2024-05-09T10:38:31.612Z,15.60
2024-05-09T10:39:31.693Z,15.50
2024-05-09T10:40:32.190Z,14.50
2024-05-09T10:41:31.599Z,14.60
2024-05-09T10:42:31.641Z,13.90
2024-05-09T10:43:31.583Z,15.60
2024-05-09T10:44:31.568Z,17.20
2024-05-09T10:45:31.555Z,13.80
2024-05-09T10:46:31.618Z,15.20
2024-05-09T10:47:31.569Z,14.40
2024-05-09T10:48:31.575Z,13.50
2024-05-09T10:49:31.511Z,15.80
2024-05-09T10:50:34.251Z,17.10
2024-05-09T10:51:31.450Z,13.20
2024-05-09T10:52:31.426Z,12.50
2024-05-09T10:53:31.439Z,13.40
2024-05-09T10:54:31.438Z,13.50
2024-05-09T10:55:31.436Z,12.60
2024-05-09T10:56:31.404Z,15.10
2024-05-09T10:57:31.417Z,13.40
2024-05-09T10:58:31.347Z,14.20
2024-05-09T10:59:31.364Z,13.30
2024-05-09T11:00:35.759Z,14.70
2024-05-09T11:01:31.433Z,15.90
2024-05-09T11:02:31.449Z,21.70
2024-05-09T11:03:31.424Z,14.10
2024-05-09T11:04:31.375Z,12.50
2024-05-09T11:05:31.417Z,12.50
2024-05-09T11:06:31.243Z,10.70
2024-05-09T11:07:31.275Z,13.10
2024-05-09T11:08:31.231Z,15.40
2024-05-09T11:09:31.266Z,14.00
2024-05-09T11:10:34.100Z,13.50
2024-05-09T11:11:31.220Z,15.50
2024-05-09T11:12:31.168Z,16.80
2024-05-09T11:13:31.434Z,12.80
2024-05-09T11:14:31.121Z,12.60
2024-05-09T11:15:31.153Z,12.60
2024-05-09T11:16:31.183Z,12.80
2024-05-09T11:17:31.199Z,16.70
2024-05-09T11:18:34.838Z,11.10
2024-05-09T11:19:31.165Z,17.20
2024-05-09T11:20:34.824Z,11.90
2024-05-09T11:21:31.071Z,12.20
2024-05-09T11:22:31.037Z,10.90
2024-05-09T11:23:31.117Z,13.40
2024-05-09T11:24:31.018Z,14.70
2024-05-09T11:25:30.976Z,10.70
2024-05-09T11:26:30.985Z,9.80
2024-05-09T11:27:31.001Z,13.50
2024-05-09T11:28:30.950Z,18.20
2024-05-09T11:29:30.987Z,11.80
2024-05-09T11:30:32.347Z,11.80
2024-05-09T11:31:31.090Z,13.20
2024-05-09T11:32:31.129Z,13.30
2024-05-09T11:33:31.086Z,14.40
2024-05-09T11:34:30.901Z,11.40
2024-05-09T11:35:30.845Z,10.50
2024-05-09T11:36:30.874Z,11.10
2024-05-09T11:37:32.675Z,12.50
2024-05-09T11:38:30.834Z,10.60
2024-05-09T11:39:31.189Z,10.30
2024-05-09T11:41:30.842Z,14.30
2024-05-09T11:42:30.849Z,10.00
2024-05-09T11:43:30.909Z,13.90
2024-05-09T11:44:30.729Z,12.70
2024-05-09T11:45:30.756Z,11.10
2024-05-09T11:46:30.749Z,10.50
2024-05-09T11:47:30.852Z,14.40
2024-05-09T11:48:30.966Z,12.10
2024-05-09T11:49:31.264Z,17.20
2024-05-09T11:50:35.269Z,12.20
2024-05-09T11:51:30.685Z,11.90
2024-05-09T11:52:30.626Z,12.80
2024-05-09T11:53:30.633Z,13.50
2024-05-09T11:54:30.671Z,12.10
2024-05-09T11:55:30.708Z,12.20
2024-05-09T11:57:07.978Z,13.30
2024-05-09T11:58:09.008Z,9.30
2024-05-09T11:59:08.916Z,10.20
2024-05-09T12:00:11.876Z,11.30
2024-05-09T12:01:09.000Z,11.80
2024-05-09T12:02:09.039Z,15.10
2024-05-09T12:03:09.147Z,10.40
2024-05-09T12:04:09.179Z,10.90
2024-05-09T12:05:08.908Z,12.00
2024-05-09T12:06:08.880Z,15.70
2024-05-09T12:07:12.208Z,9.30
2024-05-09T12:08:08.808Z,11.60
2024-05-09T12:09:08.790Z,11.00
2024-05-09T12:10:14.176Z,8.40
2024-05-09T12:11:08.855Z,11.00
2024-05-09T12:12:09.223Z,13.40
2024-05-09T12:13:08.819Z,11.00
2024-05-09T12:14:08.719Z,12.90
2024-05-09T12:15:08.741Z,10.40
2024-05-09T12:16:08.817Z,10.30
2024-05-09T12:17:08.700Z,11.90
2024-05-09T12:18:08.825Z,10.40
2024-05-09T12:19:08.796Z,8.80
2024-05-09T12:20:14.296Z,11.50
2024-05-09T12:21:08.626Z,11.50
2024-05-09T12:22:08.813Z,12.20
2024-05-09T12:23:10.183Z,10.60
2024-05-09T12:24:08.599Z,11.10
2024-05-09T12:25:08.674Z,14.40
2024-05-09T12:26:08.569Z,11.90
2024-05-09T12:27:08.575Z,11.20
2024-05-09T12:28:08.905Z,8.50
2024-05-09T12:29:08.524Z,12.90
2024-05-09T12:30:11.379Z,11.90
2024-05-09T12:31:08.540Z,10.00
2024-05-09T12:32:08.581Z,10.10
2024-05-09T12:33:09.160Z,13.20
2024-05-09T12:34:08.615Z,10.00
2024-05-09T12:35:08.428Z,11.80
2024-05-09T12:36:08.436Z,12.00
2024-05-09T12:37:08.421Z,7.70
2024-05-09T12:38:08.405Z,8.80
2024-05-09T12:39:08.376Z,11.50
2024-05-09T12:40:15.844Z,12.50
2024-05-09T12:41:08.380Z,10.60
2024-05-09T12:42:09.745Z,10.30
2024-05-09T12:43:09.722Z,9.60
2024-05-09T12:44:08.324Z,8.30
2024-05-09T12:45:08.294Z,9.30
2024-05-09T12:46:08.405Z,8.00
2024-05-09T12:47:08.286Z,8.90
2024-05-09T12:48:08.884Z,9.60
2024-05-09T12:49:08.337Z,11.80
2024-05-09T12:50:15.735Z,7.60
2024-05-09T12:51:08.251Z,9.60
2024-05-09T12:52:08.321Z,9.60
2024-05-09T12:53:08.239Z,12.40
2024-05-09T12:54:08.208Z,8.80
2024-05-09T12:55:08.228Z,13.20
2024-05-09T12:56:09.453Z,12.40
2024-05-09T12:57:08.150Z,8.60
2024-05-09T12:58:08.678Z,8.80
2024-05-09T12:59:08.214Z,13.40